N337SM KEAT-CYLW
Flight info
| Callsign | N337SM |
|---|---|
| Flight time | N/A |
| Altitude | 5000 |
| Route | KLSEY/N0172F060 DCT KOBEV |
| Aircraft | C337/L-SFG/C |
Departure
| Time | 2026-04-21 16:09 |
|---|---|
| Airport | Pangborn Memorial Airport (KEAT) |
Arrival
| Time | N/A |
|---|---|
| Airport | Kelowna International Airport (CYLW) |
| Time | Latitude | Longitude | Altitude | Speed | Heading |
|---|---|---|---|---|---|
| 2026-04-21 15:49 | 47.40191 | -120.20785 | 1232 ft | 0 kts | 317° |
| 2026-04-21 16:03 | 47.40197 | -120.20792 | 1232 ft | 5 kts | 310° |
| 2026-04-21 16:03 | 47.40167 | -120.20820 | 1231 ft | 9 kts | 133° |
| 2026-04-21 16:03 | 47.40128 | -120.20762 | 1232 ft | 7 kts | 136° |
| 2026-04-21 16:04 | 47.40067 | -120.20675 | 1233 ft | 16 kts | 135° |
| 2026-04-21 16:04 | 47.39984 | -120.20554 | 1235 ft | 15 kts | 137° |
| 2026-04-21 16:04 | 47.39918 | -120.20454 | 1237 ft | 11 kts | 134° |
| 2026-04-21 16:04 | 47.39861 | -120.20370 | 1238 ft | 14 kts | 136° |
| 2026-04-21 16:05 | 47.39764 | -120.20229 | 1238 ft | 23 kts | 136° |
| 2026-04-21 16:05 | 47.39684 | -120.20112 | 1240 ft | 6 kts | 141° |
| 2026-04-21 16:05 | 47.39652 | -120.20099 | 1240 ft | 4 kts | 181° |
| 2026-04-21 16:05 | 47.39610 | -120.20138 | 1237 ft | 5 kts | 225° |
| 2026-04-21 16:06 | 47.39607 | -120.20143 | 1236 ft | 0 kts | 226° |
| 2026-04-21 16:06 | 47.39592 | -120.20165 | 1236 ft | 5 kts | 227° |
| 2026-04-21 16:06 | 47.39565 | -120.20235 | 1234 ft | 6 kts | 285° |
| 2026-04-21 16:06 | 47.39578 | -120.20259 | 1234 ft | 0 kts | 316° |
| 2026-04-21 16:08 | 47.39580 | -120.20262 | 1235 ft | 1 kts | 316° |
| 2026-04-21 16:09 | 47.39659 | -120.20382 | 1235 ft | 45 kts | 314° |
| 2026-04-21 16:09 | 47.40022 | -120.20898 | 1353 ft | 82 kts | 314° |
| 2026-04-21 16:09 | 47.40458 | -120.21469 | 1675 ft | 89 kts | 315° |
| 2026-04-21 16:09 | 47.40915 | -120.22043 | 2096 ft | 88 kts | 317° |
| 2026-04-21 16:10 | 47.41404 | -120.22652 | 2412 ft | 98 kts | 319° |
| 2026-04-21 16:10 | 47.41938 | -120.23316 | 2764 ft | 102 kts | 320° |
| 2026-04-21 16:10 | 47.42506 | -120.24016 | 3109 ft | 111 kts | 322° |
| 2026-04-21 16:10 | 47.43087 | -120.24804 | 3480 ft | 119 kts | 305° |
| 2026-04-21 16:11 | 47.43244 | -120.26009 | 3861 ft | 126 kts | 261° |
| 2026-04-21 16:11 | 47.42799 | -120.27113 | 4232 ft | 130 kts | 217° |
| 2026-04-21 16:11 | 47.41989 | -120.27483 | 4729 ft | 120 kts | 172° |
| 2026-04-21 16:11 | 47.41235 | -120.27007 | 5039 ft | 126 kts | 136° |
| 2026-04-21 16:12 | 47.40727 | -120.26007 | 5535 ft | 117 kts | 115° |
| 2026-04-21 16:12 | 47.40439 | -120.24936 | 6025 ft | 111 kts | 105° |
| 2026-04-21 16:12 | 47.40135 | -120.22841 | 7017 ft | 100 kts | 99° |
| 2026-04-21 16:13 | 47.40063 | -120.21867 | 7505 ft | 96 kts | 88° |
| 2026-04-21 16:13 | 47.40263 | -120.20970 | 7994 ft | 94 kts | 64° |
| 2026-04-21 16:13 | 47.40705 | -120.20290 | 8479 ft | 93 kts | 48° |
| 2026-04-21 16:13 | 47.41212 | -120.19722 | 8904 ft | 95 kts | 46° |
| 2026-04-21 16:14 | 47.41781 | -120.19119 | 9184 ft | 111 kts | 45° |
| 2026-04-21 16:14 | 47.42519 | -120.18332 | 9210 ft | 145 kts | 42° |
| 2026-04-21 16:14 | 47.43430 | -120.17372 | 8814 ft | 178 kts | 40° |
| 2026-04-21 16:14 | 47.44503 | -120.16270 | 8409 ft | 187 kts | 39° |
| 2026-04-21 16:15 | 47.45518 | -120.15244 | 8487 ft | 167 kts | 39° |
| 2026-04-21 16:15 | 47.46421 | -120.14333 | 8494 ft | 150 kts | 41° |
| 2026-04-21 16:15 | 47.47248 | -120.13481 | 8462 ft | 143 kts | 40° |
| 2026-04-21 16:15 | 47.48092 | -120.12592 | 8212 ft | 152 kts | 41° |
| 2026-04-21 16:16 | 47.48974 | -120.11656 | 7979 ft | 160 kts | 41° |
| 2026-04-21 16:16 | 47.49929 | -120.10641 | 7744 ft | 180 kts | 39° |
| 2026-04-21 16:16 | 47.50986 | -120.09524 | 7506 ft | 190 kts | 39° |
| 2026-04-21 16:16 | 47.52070 | -120.08389 | 7256 ft | 194 kts | 38° |
| 2026-04-21 16:17 | 47.53169 | -120.07241 | 7059 ft | 192 kts | 38° |
| 2026-04-21 16:17 | 47.54239 | -120.06123 | 7026 ft | 185 kts | 38° |
| 2026-04-21 16:17 | 47.55282 | -120.05031 | 7023 ft | 180 kts | 38° |
| 2026-04-21 16:17 | 47.56292 | -120.03970 | 7022 ft | 178 kts | 38° |
| 2026-04-21 16:18 | 47.57298 | -120.02911 | 7023 ft | 175 kts | 38° |
| 2026-04-21 16:18 | 47.58281 | -120.01874 | 7026 ft | 173 kts | 39° |
| 2026-04-21 16:18 | 47.59252 | -120.00849 | 7028 ft | 172 kts | 38° |
| 2026-04-21 16:18 | 47.60223 | -119.99824 | 7030 ft | 171 kts | 38° |
| 2026-04-21 16:19 | 47.61197 | -119.98795 | 7026 ft | 171 kts | 39° |
| 2026-04-21 16:19 | 47.62168 | -119.97770 | 7025 ft | 170 kts | 39° |
| 2026-04-21 16:19 | 47.63125 | -119.96757 | 7023 ft | 170 kts | 38° |
| 2026-04-21 16:19 | 47.64099 | -119.95728 | 7022 ft | 170 kts | 39° |
| 2026-04-21 16:20 | 47.65058 | -119.94714 | 7020 ft | 170 kts | 39° |
| 2026-04-21 16:20 | 47.66017 | -119.93699 | 7019 ft | 170 kts | 38° |
| 2026-04-21 16:20 | 47.66983 | -119.92677 | 7020 ft | 171 kts | 38° |
| 2026-04-21 16:20 | 47.67955 | -119.91647 | 7021 ft | 171 kts | 38° |
| 2026-04-21 16:21 | 47.68927 | -119.90617 | 7021 ft | 172 kts | 38° |
| 2026-04-21 16:21 | 47.69907 | -119.89578 | 7020 ft | 172 kts | 39° |
| 2026-04-21 16:21 | 47.70889 | -119.88538 | 7019 ft | 172 kts | 39° |
| 2026-04-21 16:21 | 47.71853 | -119.87515 | 7019 ft | 172 kts | 38° |
| 2026-04-21 16:22 | 47.72836 | -119.86472 | 7020 ft | 172 kts | 38° |
| 2026-04-21 16:22 | 47.73812 | -119.85435 | 7020 ft | 172 kts | 38° |
| 2026-04-21 16:22 | 47.74786 | -119.84402 | 7021 ft | 172 kts | 39° |
| 2026-04-21 16:22 | 47.75754 | -119.83373 | 7019 ft | 171 kts | 39° |
| 2026-04-21 16:23 | 47.76720 | -119.82346 | 7021 ft | 171 kts | 39° |
| 2026-04-21 16:23 | 47.77689 | -119.81316 | 7024 ft | 170 kts | 38° |
| 2026-04-21 16:23 | 47.78648 | -119.80294 | 7027 ft | 171 kts | 39° |
| 2026-04-21 16:23 | 47.79619 | -119.79260 | 7030 ft | 171 kts | 39° |
| 2026-04-21 16:24 | 47.80584 | -119.78231 | 7032 ft | 171 kts | 39° |
| 2026-04-21 16:24 | 47.81552 | -119.77201 | 7033 ft | 172 kts | 39° |
| 2026-04-21 16:24 | 47.82532 | -119.76157 | 7032 ft | 172 kts | 39° |
| 2026-04-21 16:24 | 47.83501 | -119.75120 | 7033 ft | 172 kts | 39° |
| 2026-04-21 16:25 | 47.84460 | -119.74091 | 7032 ft | 172 kts | 39° |
| 2026-04-21 16:25 | 47.85435 | -119.73051 | 7047 ft | 171 kts | 39° |
| 2026-04-21 16:25 | 47.86363 | -119.72068 | 7286 ft | 159 kts | 39° |
| 2026-04-21 16:25 | 47.87249 | -119.71129 | 7525 ft | 152 kts | 40° |
| 2026-04-21 16:26 | 47.88102 | -119.70220 | 7761 ft | 148 kts | 40° |
| 2026-04-21 16:26 | 47.88926 | -119.69339 | 7995 ft | 146 kts | 41° |
| 2026-04-21 16:26 | 47.89751 | -119.68454 | 8241 ft | 145 kts | 41° |
| 2026-04-21 16:26 | 47.90559 | -119.67584 | 8480 ft | 144 kts | 41° |
| 2026-04-21 16:27 | 47.91368 | -119.66714 | 8722 ft | 144 kts | 42° |
| 2026-04-21 16:27 | 47.92175 | -119.65846 | 8951 ft | 145 kts | 42° |
| 2026-04-21 16:27 | 47.93031 | -119.64919 | 9016 ft | 156 kts | 43° |
| 2026-04-21 16:27 | 47.93928 | -119.63943 | 9020 ft | 165 kts | 41° |
| 2026-04-21 16:28 | 47.94877 | -119.62921 | 9021 ft | 171 kts | 41° |
| 2026-04-21 16:28 | 47.95850 | -119.61878 | 9021 ft | 174 kts | 41° |
| 2026-04-21 16:28 | 47.96839 | -119.60822 | 9021 ft | 175 kts | 41° |
| 2026-04-21 16:28 | 47.97838 | -119.59754 | 9020 ft | 176 kts | 41° |
| 2026-04-21 16:29 | 47.98830 | -119.58695 | 9017 ft | 177 kts | 41° |
| 2026-04-21 16:29 | 47.99832 | -119.57622 | 9020 ft | 176 kts | 41° |
| 2026-04-21 16:29 | 48.00854 | -119.56588 | 9015 ft | 179 kts | 32° |
| 2026-04-21 16:29 | 48.02085 | -119.56124 | 9016 ft | 186 kts | 8° |
| 2026-04-21 16:30 | 48.03385 | -119.56124 | 9016 ft | 188 kts | 3° |
| 2026-04-21 16:30 | 48.04689 | -119.56231 | 9017 ft | 189 kts | 0° |
| 2026-04-21 16:30 | 48.06002 | -119.56393 | 9023 ft | 189 kts | 359° |
| 2026-04-21 16:30 | 48.07315 | -119.56568 | 9022 ft | 189 kts | 359° |
| 2026-04-21 16:31 | 48.08630 | -119.56741 | 9022 ft | 189 kts | 359° |
| 2026-04-21 16:31 | 48.09927 | -119.56905 | 9018 ft | 189 kts | 359° |
| 2026-04-21 16:31 | 48.11247 | -119.57063 | 9019 ft | 189 kts | 359° |
| 2026-04-21 16:31 | 48.12566 | -119.57217 | 9018 ft | 189 kts | 359° |
| 2026-04-21 16:32 | 48.13893 | -119.57368 | 9017 ft | 188 kts | 359° |
| 2026-04-21 16:32 | 48.15190 | -119.57512 | 9029 ft | 187 kts | 359° |
| 2026-04-21 16:32 | 48.16509 | -119.57657 | 9045 ft | 188 kts | 359° |
| 2026-04-21 16:32 | 48.17827 | -119.57801 | 9046 ft | 189 kts | 359° |
| 2026-04-21 16:33 | 48.19143 | -119.57945 | 9042 ft | 189 kts | 359° |
| 2026-04-21 16:33 | 48.20449 | -119.58088 | 9042 ft | 189 kts | 359° |
| 2026-04-21 16:33 | 48.21777 | -119.58234 | 9039 ft | 190 kts | 359° |
| 2026-04-21 16:33 | 48.23083 | -119.58377 | 9037 ft | 190 kts | 359° |
| 2026-04-21 16:34 | 48.24424 | -119.58524 | 9031 ft | 189 kts | 359° |
| 2026-04-21 16:34 | 48.25729 | -119.58669 | 9031 ft | 189 kts | 359° |
| 2026-04-21 16:34 | 48.27042 | -119.58813 | 9034 ft | 189 kts | 359° |
| 2026-04-21 16:34 | 48.28366 | -119.58958 | 9036 ft | 189 kts | 359° |
| 2026-04-21 16:35 | 48.29674 | -119.59102 | 9044 ft | 189 kts | 359° |